Terminal Aerodrome Forecast
Issued by NWS

Current Version | Previous Version | Graphics & Text | Print | Product List | Glossary On
Versions: 1 2 3 4 5 6 7 8 9 10 11 12 13 14 15 16 17 18 19 20 21 22 23 24 25 26 27 28 29 30 31 32 33 34
480
FTUS41 KRNK 070528
TAFLWB
TAF
KLWB 070528Z 0706/0806 23005KT 6SM BR BKN008 OVC020
     FM070800 31010KT P6SM SCT003 BKN020
     FM071200 31009KT P6SM SCT010
     FM071400 29005KT P6SM BKN025
     FM072000 28004KT P6SM FEW150=

USA.gov is the U.S. government's official web portal to all federal, state and local government web resources and services.